Mountain Home, Utah
Current Conditions -  °F | °C
As of 9:53 AM on Saturday 25 Oct 2014 (Local Time) from KVEL Reporting Station
Clear Clear  
Wind Chill: 50°   Ceiling: Unl
Heat Index: 50°   Visibility: 10mi
Dew Point: 36°   Wind: 3mph
Humidity: 59%   Direction: 50°NE
Pressure: 30.26"   Gusts: NA
Location:  40.4°N, 110.39°W
Report Text: KVEL 251553Z AUTO 05003KT 10SM CLR 10/02 A3026 RMK AO2 SLP227 T01000022
Loading
Personal Weather Stations






























Interactive Weather Map
Tropical Storm Tracking
New forecast layout! Learn more

10-Day Weather Forecast

Advertisements
Track Severe Weather on mobile